^^
Station Historical Data
Daily Summary for May 15, 2017 Units:  Metric    English   Both
« Previous Day
Next Day »
Daily Weekly Monthly Yearly Custom
  High: Low: Average:
Temperature: 26.8 °C 10.4 °C 17.3 °C
Dew Point: 2.6 °C -2.6 °C -0.6 °C
Humidity: 46% 17% 31%
Wind Speed: 22.7km/h 0km/h 2.6km/h
Wind Gust: 24.1km/h - -
Wind- - South
Pressure: 1020.5 hPa 1016.1 hPa -
Precipitation: 0 mm    
Historical Graphs
 
 
Tabular Data for May 15, 2017
Time Temperature Dew Point Pressure Wind Wind Speed Wind Gust Humidity Rainfall Rate (Hourly) solar Conditions
00:02 13.8 °C -1.8 °C 1018.8 hPa North 3.2 km/h 11.3 km/h 34% 0 mm 0.0 W/m2
00:07 13.6 °C -1.6 °C 1018.8 hPa North 9.7 km/h 9.7 km/h 35% 0 mm 0.0 W/m2
00:12 13.4 °C -1.8 °C 1018.8 hPa Calm   8 km/h 35% 0 mm 0.0 W/m2
00:17 13.2 °C -1.9 °C 1018.8 hPa Calm   8 km/h 35% 0 mm 0.0 W/m2
00:22 13.2 °C -1.6 °C 1018.8 hPa Calm     36% 0 mm 0.0 W/m2
00:27 13.3 °C -1.8 °C 1018.8 hPa Calm     35% 0 mm 0.0 W/m2
00:37 13.9 °C -1.7 °C 1018.8 hPa Calm     34% 0 mm 0.0 W/m2
00:43 14.1 °C -1.5 °C 1018.8 hPa Calm     34% 0 mm 0.0 W/m2
00:53 14.2 °C -1.4 °C 1018.8 hPa Calm     34% 0 mm 0.0 W/m2
00:58 14.5 °C -1.6 °C 1018.8 hPa Calm     33% 0 mm 0.0 W/m2
01:03 14.8 °C -1.7 °C 1018.8 hPa Calm     32% 0 mm 0.0 W/m2
01:08 15.1 °C -1.5 °C 1018.8 hPa Calm     32% 0 mm 0.0 W/m2
01:13 15.1 °C -1.5 °C 1018.8 hPa Calm     32% 0 mm 0.0 W/m2
01:18 15.2 °C -1.4 °C 1018.8 hPa Calm     32% 0 mm 0.0 W/m2
01:24 15.2 °C -1.4 °C 1018.8 hPa Calm     32% 0 mm 0.0 W/m2
01:29 15.3 °C -1.3 °C 1018.5 hPa Calm     32% 0 mm 0.0 W/m2
01:34 15.4 °C -1.7 °C 1018.8 hPa Calm   9.7 km/h 31% 0 mm 0.0 W/m2
01:39 15.4 °C -1.2 °C 1018.8 hPa North 1.4 km/h 9.7 km/h 32% 0 mm 0.0 W/m2
01:44 15.6 °C -1 °C 1018.8 hPa Calm     32% 0 mm 0.0 W/m2
01:49 15.6 °C -1 °C 1018.8 hPa North 6.4 km/h 9.7 km/h 32% 0 mm 0.0 W/m2
01:55 15.6 °C -1 °C 1018.8 hPa North 6.4 km/h 8 km/h 32% 0 mm 0.0 W/m2
02:00 15.6 °C -1 °C 1018.8 hPa Calm     32% 0 mm 0.0 W/m2
02:05 15.6 °C -1 °C 1018.5 hPa Calm     32% 0 mm 0.0 W/m2
02:10 15.3 °C -0.9 °C 1018.5 hPa Calm     33% 0 mm 0.0 W/m2
02:16 15.1 °C -1.1 °C 1018.5 hPa Calm     33% 0 mm 0.0 W/m2
02:21 14.9 °C -1.2 °C 1018.5 hPa Calm     33% 0 mm 0.0 W/m2
02:26 14.8 °C -0.9 °C 1018.5 hPa Calm     34% 0 mm 0.0 W/m2
02:31 14.7 °C -1 °C 1018.5 hPa Calm     34% 0 mm 0.0 W/m2
02:36 14.6 °C -0.7 °C 1018.8 hPa North 3.2 km/h 11.3 km/h 35% 0 mm 0.0 W/m2
02:41 14.6 °C -0.7 °C 1018.5 hPa North 1.4 km/h 9.7 km/h 35% 0 mm 0.0 W/m2
02:46 14.7 °C -0.6 °C 1018.5 hPa Calm   1.6 km/h 35% 0 mm 0.0 W/m2
02:51 14.7 °C -0.6 °C 1018.5 hPa Calm   3.2 km/h 35% 0 mm 0.0 W/m2
02:57 14.7 °C -0.6 °C 1018.5 hPa Calm   9.7 km/h 35% 0 mm 0.0 W/m2
03:07 14.3 °C -1 °C 1018.5 hPa Calm     35% 0 mm 0.0 W/m2
03:12 14 °C -0.8 °C 1018.5 hPa Calm     36% 0 mm 0.0 W/m2
03:18 13.7 °C -0.7 °C 1018.5 hPa Calm     37% 0 mm 0.0 W/m2
03:28 13.6 °C -1.2 °C 1018.8 hPa Calm     36% 0 mm 0.0 W/m2
03:34 13.4 °C -1.4 °C 1018.5 hPa Calm     36% 0 mm 0.0 W/m2
03:39 13.4 °C -1.4 °C 1018.5 hPa Calm     36% 0 mm 0.0 W/m2
03:44 13.3 °C -1.5 °C 1018.5 hPa Calm     36% 0 mm 0.0 W/m2
03:49 13.2 °C -1.6 °C 1018.5 hPa Calm     36% 0 mm 0.0 W/m2
03:59 12.9 °C -1.8 °C 1018.5 hPa Calm     36% 0 mm 0.0 W/m2
04:04 12.8 °C -1.5 °C 1018.5 hPa Calm     37% 0 mm 0.0 W/m2
04:09 12.7 °C -1.6 °C 1018.5 hPa Calm     37% 0 mm 0.0 W/m2
04:14 12.5 °C -1.8 °C 1018.5 hPa Calm     37% 0 mm 0.0 W/m2
04:20 12.1 °C -1.8 °C 1018.5 hPa Calm     38% 0 mm 0.0 W/m2
04:25 11.8 °C -1.4 °C 1018.5 hPa Calm     40% 0 mm 0.0 W/m2
04:30 11.6 °C -1.5 °C 1018.5 hPa Calm     40% 0 mm 0.0 W/m2
04:35 11.2 °C -1.6 °C 1018.8 hPa Calm     41% 0 mm 0.0 W/m2
04:40 10.8 °C -1.6 °C 1018.8 hPa Calm     42% 0 mm 0.0 W/m2
04:46 10.5 °C -1.6 °C 1018.8 hPa Calm     43% 0 mm 0.0 W/m2
04:51 10.4 °C -1.3 °C 1018.8 hPa Calm   8 km/h 44% 0 mm 0.0 W/m2
04:56 10.4 °C -1.3 °C 1018.8 hPa Calm   8 km/h 44% 0 mm 0.0 W/m2
05:01 10.6 °C -1.2 °C 1018.8 hPa Calm   6.4 km/h 44% 0 mm 0.0 W/m2
05:06 10.8 °C -1 °C 1018.8 hPa North 1.4 km/h 3.2 km/h 44% 0 mm 0.0 W/m2
05:11 11.1 °C -0.7 °C 1018.8 hPa North 3.2 km/h 8 km/h 44% 0 mm 0.0 W/m2
05:16 11.3 °C -0.8 °C 1018.8 hPa Calm   9.7 km/h 43% 0 mm 0.0 W/m2
05:21 11.4 °C -1.1 °C 1018.8 hPa Calm     42% 0 mm 0.0 W/m2
05:27 11.3 °C -0.8 °C 1019.2 hPa Calm     43% 0 mm 0.0 W/m2
05:32 11.3 °C -0.5 °C 1019.2 hPa Calm   11.3 km/h 44% 0 mm 0.0 W/m2
05:37 11.3 °C -0.5 °C 1019.2 hPa Calm   9.7 km/h 44% 0 mm 0.0 W/m2
05:42 11.2 °C -0.6 °C 1019.2 hPa North 6.4 km/h 6.4 km/h 44% 0 mm 0.0 W/m2
05:47 11.1 °C -0.4 °C 1019.2 hPa Calm   8 km/h 45% 0 mm 0.0 W/m2
05:53 11.1 °C -0.4 °C 1019.2 hPa Calm   8 km/h 45% 0 mm 0.0 W/m2
05:58 11 °C -0.5 °C 1019.5 hPa North 3.2 km/h 9.7 km/h 45% 0 mm 0.0 W/m2
06:03 11 °C -0.5 °C 1019.5 hPa North 6.4 km/h 8 km/h 45% 0 mm 0.0 W/m2
06:13 11.1 °C -0.1 °C 1019.5 hPa North 7.9 km/h 8 km/h 46% 0 mm 0.0 W/m2
06:19 11.2 °C -0.3 °C 1019.5 hPa Calm   8 km/h 45% 0 mm 0.0 W/m2
06:29 11.2 °C -0.3 °C 1019.5 hPa North 7.9 km/h 8 km/h 45% 0 mm 7.0 W/m2
06:34 11.1 °C -0.4 °C 1019.9 hPa Calm   9.7 km/h 45% 0 mm 9.0 W/m2
06:40 10.9 °C -0.6 °C 1019.9 hPa Calm   9.7 km/h 45% 0 mm 11.0 W/m2
06:49 11 °C -0.5 °C 1019.9 hPa North 1.4 km/h 12.9 km/h 45% 0 mm 16.0 W/m2
06:54 10.9 °C -0.6 °C 1019.9 hPa Calm   9.7 km/h 45% 0 mm 18.0 W/m2
07:05 11.1 °C -0.4 °C 1020.2 hPa Calm   3.2 km/h 45% 0 mm 28.0 W/m2
07:10 11.3 °C -0.2 °C 1020.2 hPa Calm   9.7 km/h 45% 0 mm 51.0 W/m2
07:17 11.7 °C 0.2 °C 1020.2 hPa Calm   6.4 km/h 45% 0 mm 97.0 W/m2
08:18 15.9 °C 0.8 °C 1020.5 hPa Calm     36% 0 mm 299.0 W/m2
08:48 17.5 °C 1.5 °C 1020.5 hPa North 14.3 km/h 14.5 km/h 34% 0 mm 385.0 W/m2
09:03 18.1 °C 1.6 °C 1020.5 hPa North 13 km/h 14.5 km/h 33% 0 mm 429.0 W/m2
09:18 18.7 °C 1.7 °C 1020.5 hPa North 9.7 km/h 19.3 km/h 32% 0 mm 462.0 W/m2
09:47 19.6 °C 2 °C 1020.5 hPa North 11.1 km/h 16.1 km/h 31% 0 mm 529.0 W/m2
10:00 19.8 °C 1.7 °C 1020.5 hPa North 7.9 km/h 14.5 km/h 30% 0 mm 559.0 W/m2
10:08 20.1 °C 2 °C 1020.5 hPa North 3.2 km/h 17.7 km/h 30% 0 mm 571.0 W/m2
10:18 20.8 °C 2.1 °C 1020.2 hPa North 13 km/h 17.7 km/h 29% 0 mm 591.0 W/m2
10:28 21.4 °C 2.6 °C 1020.2 hPa North 6.4 km/h 17.7 km/h 29% 0 mm 603.0 W/m2
10:38 22 °C 1.6 °C 1019.9 hPa North 20.9 km/h 22.5 km/h 26% 0 mm 619.0 W/m2
10:48 22.3 °C 1.9 °C 1019.9 hPa North 9.7 km/h 24.1 km/h 26% 0 mm 628.0 W/m2
10:54 22.6 °C 1.6 °C 1019.9 hPa North 9.7 km/h 22.5 km/h 25% 0 mm 629.0 W/m2
11:40 24 °C 1.6 °C 1018.8 hPa North 7.9 km/h 12.9 km/h 23% 0 mm 654.0 W/m2
11:50 24.1 °C 1.1 °C 1018.8 hPa North 9.7 km/h 20.9 km/h 22% 0 mm 654.0 W/m2
11:55 24.3 °C 1.2 °C 1018.8 hPa North 7.9 km/h 12.9 km/h 22% 0 mm 654.0 W/m2
12:00 24.3 °C 1.2 °C 1018.5 hPa Calm   24.1 km/h 22% 0 mm 652.0 W/m2
12:05 24.2 °C 1.1 °C 1018.5 hPa North 6.4 km/h 14.5 km/h 22% 0 mm 652.0 W/m2
12:10 24.4 °C 1.3 °C 1018.2 hPa North 3.2 km/h 14.5 km/h 22% 0 mm 649.0 W/m2
12:15 24.5 °C 1.4 °C 1018.2 hPa North 20.9 km/h 20.9 km/h 22% 0 mm 647.0 W/m2
12:24 24.7 °C 0.9 °C 1018.2 hPa North 9.7 km/h 14.5 km/h 21% 0 mm 642.0 W/m2
12:34 24.6 °C 0.8 °C 1017.8 hPa North 11.1 km/h 19.3 km/h 21% 0 mm 633.0 W/m2
12:39 24.9 °C 1.1 °C 1017.8 hPa North 22.7 km/h 24.1 km/h 21% 0 mm 629.0 W/m2
12:49 24.9 °C 0.4 °C 1017.8 hPa North 3.2 km/h 11.3 km/h 20% 0 mm 619.0 W/m2
12:54 25.1 °C 0.6 °C 1017.8 hPa North 13 km/h 22.5 km/h 20% 0 mm 615.0 W/m2
12:59 25.1 °C 0.6 °C 1017.5 hPa North 3.2 km/h 14.5 km/h 20% 0 mm 610.0 W/m2
13:04 25.3 °C 0.7 °C 1017.5 hPa Calm   12.9 km/h 20% 0 mm 601.0 W/m2
13:09 25.4 °C 0.1 °C 1017.5 hPa NNW 13 km/h 14.5 km/h 19% 0 mm 594.0 W/m2
13:19 25.5 °C 0.2 °C 1017.2 hPa Calm   12.9 km/h 19% 0 mm 582.0 W/m2
13:24 25.8 °C 0.4 °C 1017.2 hPa NNW 6.4 km/h 14.5 km/h 19% 0 mm 573.0 W/m2
13:31 25.8 °C 0.4 °C 1017.2 hPa NNW 7.9 km/h 14.5 km/h 19% 0 mm 566.0 W/m2
13:36 25.7 °C 0.3 °C 1017.2 hPa Calm   8 km/h 19% 0 mm 561.0 W/m2
14:00 26.3 °C 0.1 °C 1016.8 hPa NNW 11.1 km/h 11.3 km/h 18% 0 mm 526.0 W/m2
14:11 26.2 °C 0 °C 1016.8 hPa Calm   11.3 km/h 18% 0 mm 515.0 W/m2
14:26 26.1 °C -0.1 °C 1016.8 hPa Calm   8 km/h 18% 0 mm 432.0 W/m2
15:05 26.5 °C -0.5 °C 1016.5 hPa North 6.4 km/h 17.7 km/h 17% 0 mm 355.0 W/m2
15:13 26.7 °C -0.4 °C 1016.1 hPa North 6.4 km/h 14.5 km/h 17% 0 mm 330.0 W/m2
15:24 26.6 °C -0.5 °C 1016.1 hPa North 3.2 km/h 11.3 km/h 17% 0 mm 294.0 W/m2
15:35 26.7 °C -0.4 °C 1016.1 hPa North 3.2 km/h 14.5 km/h 17% 0 mm 276.0 W/m2
15:43 26.7 °C -0.4 °C 1016.1 hPa Calm     17% 0 mm 246.0 W/m2
15:53 26.8 °C -0.3 °C 1016.5 hPa Calm   9.7 km/h 17% 0 mm 200.0 W/m2
15:59 26.7 °C -0.4 °C 1016.5 hPa North 3.2 km/h 11.3 km/h 17% 0 mm 176.0 W/m2
16:09 26.8 °C 0.5 °C 1016.5 hPa Calm   3.2 km/h 18% 0 mm 132.0 W/m2
16:18 26.7 °C -0.4 °C 1016.5 hPa Calm     17% 0 mm 95.0 W/m2
16:35 26.3 °C 0.1 °C 1016.8 hPa Calm     18% 0 mm 49.0 W/m2
17:14 25.1 °C -0.1 °C 1016.8 hPa Calm     19% 0 mm 0.0 W/m2
17:30 24.5 °C -0.6 °C 1016.8 hPa Calm     19% 0 mm 0.0 W/m2
17:40 23.1 °C -1.1 °C 1016.8 hPa Calm     20% 0 mm 0.0 W/m2
18:02 21.7 °C -1 °C 1016.8 hPa Calm     22% 0 mm 0.0 W/m2
18:11 20.7 °C -1.2 °C 1017.2 hPa Calm     23% 0 mm 0.0 W/m2
18:41 19.8 °C -0.8 °C 1017.2 hPa Calm     25% 0 mm 0.0 W/m2
19:18 19.3 °C -1.2 °C 1017.5 hPa Calm     25% 0 mm 0.0 W/m2
19:35 19.2 °C -1.3 °C 1017.8 hPa Calm     25% 0 mm 0.0 W/m2
19:51 18.3 °C -1.5 °C 1017.8 hPa Calm     26% 0 mm 0.0 W/m2
20:07 17.3 °C -1.9 °C 1017.8 hPa Calm     27% 0 mm 0.0 W/m2
20:22 16.7 °C -2.4 °C 1017.8 hPa Calm     27% 0 mm 0.0 W/m2
20:30 16.3 °C -2.3 °C 1018.2 hPa Calm     28% 0 mm 0.0 W/m2
20:50 15.9 °C -2.1 °C 1018.2 hPa Calm     29% 0 mm 0.0 W/m2
21:05 15.4 °C -2.6 °C 1018.2 hPa Calm     29% 0 mm 0.0 W/m2
21:11 15.1 °C -2.4 °C 1018.2 hPa Calm     30% 0 mm 0.0 W/m2
21:27 15.3 °C -2.2 °C 1018.5 hPa Calm     30% 0 mm 0.0 W/m2
21:41 16.7 °C -1.4 °C 1018.5 hPa Calm     29% 0 mm 0.0 W/m2
21:49 16.5 °C -1.6 °C 1018.5 hPa Calm     29% 0 mm 0.0 W/m2
23:26 17.6 °C -1.6 °C 1018.8 hPa Calm     27% 0 mm 0.0 W/m2
23:31 17.4 °C -1.8 °C 1018.8 hPa Calm     27% 0 mm 0.0 W/m2
23:37 17.3 °C -1.9 °C 1018.8 hPa Calm     27% 0 mm 0.0 W/m2
23:42 17.2 °C -2 °C 1018.8 hPa Calm     27% 0 mm 0.0 W/m2
23:47 17.1 °C -1.6 °C 1018.8 hPa Calm     28% 0 mm 0.0 W/m2
23:52 16.8 °C -1.8 °C 1018.8 hPa Calm     28% 0 mm 0.0 W/m2
23:58 16.5 °C -1.6 °C 1018.8 hPa Calm     29% 0 mm 0.0 W/m2
Canyon Roadhouse, Fishriver Canyon, Namibia
Compliments of Weather Underground - 2.5 mb